Airfield :
LOGIN :

Register | Disclaimer

   EN    FR    IT 

 










Legend :    VFR   Marginal VFR   IFR   Intensive IFR   Very Intensive IFR
Visi :
Ceiling :
>= 8 km
>= 3000ft
5 to 8 km
1000 to 3000 ft
1500m to 5 km
500 to 1000 ft
800 to 1500m
200 to 500 ft
< 800m
< 200 ft
Symbols :   Thunderstorms  Fog  Heavy snow  Heavy precipitations  Wind > 20 kt
SIGMETs :     Misc.  Thunderstorms  Icing  Turbulence  Mountain Waves  Volcanic Ashes







- Airport Elevation : 141 ft
- IATA code : SKS


EKSP - Srydstrup Vojens

CURRENT METAR :
  • 210833Z 15007KT 8000 BKN007 SCT032 12/11 Q1011

EXPIRED METARs :
  • 210820Z 12008KT 8000 SCT007 SCT032 12/11 Q1011
  • 210806Z 13008KT 7000 BKN007 BKN032 12/11 Q1011
  • 210750Z 14007KT 6000 BKN007 BKN030 12/11 Q1011
  • 210734Z 13005KT 100V170 7000 SCT006 BKN030 12/11 Q1011
  • 210720Z 12006KT 4000 BR SCT004 BKN030 11/11 Q1011
  • 210650Z 14006KT 090V160 4000 BR BKN004 BKN040 11/10 Q1010
  • 210620Z 16004KT 4000 BR BKN004 BKN040 11/11 Q1010
  • 210550Z 15005KT 110V190 4000 BR SCT009 BKN040 11/11 Q1010

TAF AMD TAF EKSP
Valid from the 21 at 06:00 until the 22 at 06:00 UTC


210622Z 2106/2206 12008KT 6000 BKN040
TEMPO 2106/2110 2800 BR BKN004
TEMPO 2110/2116 8000 -RA
BECMG 2116/2119 4000 -RADZ BKN008
TEMPO 2119/2206 2500 BR BKN004
No reported NOTAMs for that airfield.



MET'MAP, your aeronautical weather chart ! - Copyright ORBIFLY December 2007 - Disclaimer

ORBIFLY MET'MAP TEAM :

Programming & Development : Alexandra Zaïnal
Concept & Development : Baudouin d'Aumeries
Co-Development & Prog : Marc-Olivier Méhu
Technical & hardware support : Manuel Goepfert

Contact : metmap@orbifly.com




SOURCES & CREDITS :

   NOAA